Time;durP1;ratioP1;P1;durP2;ratioP2;P2;SDS_P1;SDS_P2;PMS_P1;PMS_P2;Temp;Humidity;BMP_temperature;BMP_pressure;BME280_temperature;BME280_humidity;BME280_pressure;Samples;Min_cycle;Max_cycle;Signal;HPM_P1;HPM_P2
2023/08/04 00:00:15;;;;;;;3.70;1.67;;;;;;;;;;5064222;28;20037;-84
2023/08/04 00:02:41;;;;;;;4.55;1.45;;;;;;;;;;5072913;28;20407;-83
2023/08/04 00:05:07;;;;;;;3.20;1.27;;;;;;;;;;5049952;28;20455;-83
2023/08/04 00:07:34;;;;;;;3.45;1.40;;;;;;;;;;5061551;28;20112;-83
2023/08/04 00:09:59;;;;;;;3.25;1.40;;;;;;;;;;5062279;28;20037;-83
2023/08/04 00:12:25;;;;;;;2.53;1.40;;;;;;;;;;5070982;28;20378;-83
2023/08/04 00:14:50;;;;;;;4.30;1.50;;;;;;;;;;5060107;28;20030;-83
2023/08/04 00:17:16;;;;;;;4.47;1.48;;;;;;;;;;5057436;28;20124;-83
2023/08/04 00:19:42;;;;;;;3.97;1.55;;;;;;;;;;5060517;28;20042;-82
2023/08/04 00:22:08;;;;;;;2.78;1.30;;;;;;;;;;5058257;28;20588;-82
2023/08/04 00:24:34;;;;;;;3.63;1.45;;;;;;;;;;5067148;28;20032;-81
2023/08/04 00:27:00;;;;;;;3.40;1.40;;;;;;;;;;5070133;28;20039;-81
2023/08/04 00:29:27;;;;;;;5.28;1.30;;;;;;;;;;5060528;28;20052;-81
2023/08/04 00:31:53;;;;;;;4.25;1.30;;;;;;;;;;5048767;28;20033;-82
2023/08/04 00:34:18;;;;;;;3.13;1.30;;;;;;;;;;5069412;28;20051;-81
2023/08/04 00:36:45;;;;;;;4.00;1.20;;;;;;;;;;5066696;28;20506;-82
2023/08/04 00:39:11;;;;;;;3.80;1.30;;;;;;;;;;5059564;28;20037;-82
2023/08/04 00:41:36;;;;;;;2.20;1.02;;;;;;;;;;5064252;28;20044;-82
2023/08/04 00:44:02;;;;;;;4.93;1.20;;;;;;;;;;5063528;28;20519;-82
2023/08/04 00:46:29;;;;;;;4.43;1.13;;;;;;;;;;5071459;28;20118;-81
2023/08/04 00:48:56;;;;;;;2.50;1.20;;;;;;;;;;5059677;28;20089;-82
2023/08/04 00:51:22;;;;;;;2.30;1.30;;;;;;;;;;5064815;28;20084;-82
2023/08/04 00:53:48;;;;;;;2.92;1.30;;;;;;;;;;5056639;28;20040;-82
2023/08/04 00:56:15;;;;;;;3.05;1.20;;;;;;;;;;5047310;28;20033;-82
2023/08/04 00:58:40;;;;;;;3.90;1.27;;;;;;;;;;5061549;28;20034;-81
2023/08/04 01:01:06;;;;;;;3.78;1.45;;;;;;;;;;5063857;28;20035;-81
2023/08/04 01:03:32;;;;;;;4.35;1.23;;;;;;;;;;5048516;28;20120;-81
2023/08/04 01:06:06;;;;;;;3.85;1.10;;;;;;;;;;5041127;28;20046;-81
2023/08/04 01:08:34;;;;;;;3.20;1.30;;;;;;;;;;5061602;28;20575;-81
2023/08/04 01:11:13;;;;;;;4.80;1.20;;;;;;;;;;5062957;28;20025;-81
2023/08/04 01:13:39;;;;;;;2.50;1.27;;;;;;;;;;5048230;28;20029;-81
2023/08/04 01:16:07;;;;;;;2.20;1.30;;;;;;;;;;5057026;28;20029;-81
2023/08/04 01:18:33;;;;;;;2.78;1.35;;;;;;;;;;5039534;28;20033;-82
2023/08/04 01:21:05;;;;;;;2.75;1.00;;;;;;;;;;5057691;28;20033;-81
2023/08/04 01:23:32;;;;;;;6.03;1.10;;;;;;;;;;5058087;28;20104;-81
2023/08/04 01:25:57;;;;;;;2.78;1.17;;;;;;;;;;5056464;28;20029;-81
2023/08/04 01:28:24;;;;;;;4.40;1.30;;;;;;;;;;5054661;28;20041;-81
2023/08/04 01:30:54;;;;;;;2.40;1.23;;;;;;;;;;5045110;28;20037;-81
2023/08/04 01:33:22;;;;;;;3.05;1.20;;;;;;;;;;5067293;28;20052;-81
2023/08/04 01:35:47;;;;;;;2.05;1.00;;;;;;;;;;5053934;28;20044;-81
2023/08/04 01:38:13;;;;;;;5.00;1.25;;;;;;;;;;5045806;28;20088;-81
2023/08/04 01:40:39;;;;;;;3.08;1.00;;;;;;;;;;5043764;28;20042;-81
2023/08/04 01:43:05;;;;;;;2.53;1.10;;;;;;;;;;5059155;28;20090;-81
2023/08/04 01:45:30;;;;;;;2.90;1.10;;;;;;;;;;5055853;28;20029;-81
2023/08/04 01:47:56;;;;;;;2.50;1.13;;;;;;;;;;5057447;28;20413;-81
2023/08/04 01:50:22;;;;;;;3.10;1.02;;;;;;;;;;5057634;28;20580;-81
2023/08/04 01:52:47;;;;;;;5.10;1.13;;;;;;;;;;5050502;28;20032;-81
2023/08/04 01:55:13;;;;;;;5.22;1.13;;;;;;;;;;5054857;28;20021;-81
2023/08/04 01:57:39;;;;;;;3.53;1.10;;;;;;;;;;5060497;28;20032;-81
2023/08/04 02:00:06;;;;;;;3.50;1.13;;;;;;;;;;5059431;28;20108;-82
2023/08/04 02:02:37;;;;;;;2.35;1.25;;;;;;;;;;5042851;28;20041;-81
2023/08/04 02:05:02;;;;;;;5.95;1.10;;;;;;;;;;5059152;28;20037;-81
2023/08/04 02:07:28;;;;;;;4.68;1.00;;;;;;;;;;5063373;28;20494;-81
2023/08/04 02:09:53;;;;;;;4.18;1.08;;;;;;;;;;5051809;28;20052;-81
2023/08/04 02:12:19;;;;;;;2.00;0.90;;;;;;;;;;5053465;28;20091;-81
2023/08/04 02:14:45;;;;;;;3.30;1.00;;;;;;;;;;5054438;28;20033;-81
2023/08/04 02:17:12;;;;;;;2.33;1.05;;;;;;;;;;5058520;28;20040;-81
2023/08/04 02:19:38;;;;;;;1.17;0.90;;;;;;;;;;5050504;28;20024;-81
2023/08/04 02:22:04;;;;;;;2.90;0.80;;;;;;;;;;5052079;28;20515;-82
2023/08/04 02:24:31;;;;;;;1.95;0.98;;;;;;;;;;5053759;28;20510;-81
2023/08/04 02:26:56;;;;;;;3.38;1.10;;;;;;;;;;5047686;28;20107;-81
2023/08/04 02:29:22;;;;;;;3.67;1.20;;;;;;;;;;5038748;28;20450;-81
2023/08/04 02:31:47;;;;;;;2.30;0.93;;;;;;;;;;5064354;28;20123;-81
2023/08/04 02:34:14;;;;;;;1.73;0.90;;;;;;;;;;5058152;28;20033;-81
2023/08/04 02:36:40;;;;;;;2.75;0.90;;;;;;;;;;5041096;28;20730;-81
2023/08/04 02:39:05;;;;;;;2.33;1.08;;;;;;;;;;5052526;28;20037;-81
2023/08/04 02:41:33;;;;;;;3.28;0.90;;;;;;;;;;5062732;28;20405;-81
2023/08/04 02:43:58;;;;;;;2.55;1.17;;;;;;;;;;5066116;28;20491;-81
2023/08/04 02:46:25;;;;;;;2.95;1.10;;;;;;;;;;5044007;28;20081;-81
2023/08/04 02:48:51;;;;;;;1.75;1.00;;;;;;;;;;5051429;28;20036;-81
2023/08/04 02:51:17;;;;;;;1.80;0.98;;;;;;;;;;5057494;28;20060;-81
2023/08/04 02:53:44;;;;;;;4.40;1.13;;;;;;;;;;5049712;28;20034;-81
2023/08/04 02:56:12;;;;;;;2.58;1.10;;;;;;;;;;5056465;28;20170;-82
2023/08/04 02:58:37;;;;;;;6.25;1.15;;;;;;;;;;5055930;28;20036;-81
2023/08/04 03:01:03;;;;;;;1.70;0.80;;;;;;;;;;5046526;28;20033;-81
2023/08/04 03:03:30;;;;;;;1.92;0.90;;;;;;;;;;5058112;28;20687;-81
2023/08/04 03:05:57;;;;;;;2.50;1.00;;;;;;;;;;5060523;28;20108;-82
2023/08/04 03:08:23;;;;;;;4.97;1.20;;;;;;;;;;5051029;28;20048;-81
2023/08/04 03:10:48;;;;;;;1.67;0.98;;;;;;;;;;5041938;28;20037;-82
2023/08/04 03:13:14;;;;;;;2.30;0.90;;;;;;;;;;5060930;28;20075;-82
2023/08/04 03:15:39;;;;;;;1.75;0.85;;;;;;;;;;5063352;28;20481;-81
2023/08/04 03:18:05;;;;;;;2.05;0.85;;;;;;;;;;5059636;28;20034;-82
2023/08/04 03:20:36;;;;;;;1.63;0.80;;;;;;;;;;5049947;28;20551;-82
2023/08/04 03:23:01;;;;;;;1.52;0.80;;;;;;;;;;5052975;28;20029;-82
2023/08/04 03:25:27;;;;;;;1.98;0.98;;;;;;;;;;5057586;28;20085;-81
2023/08/04 03:27:52;;;;;;;3.55;1.00;;;;;;;;;;5036333;28;20046;-81
2023/08/04 03:30:18;;;;;;;1.42;0.77;;;;;;;;;;5061417;28;20036;-82
2023/08/04 03:32:43;;;;;;;2.20;0.90;;;;;;;;;;5058430;28;20627;-82
2023/08/04 03:35:08;;;;;;;2.70;1.00;;;;;;;;;;5042911;28;20103;-81
2023/08/04 03:37:34;;;;;;;1.63;0.80;;;;;;;;;;5063517;28;20112;-82
2023/08/04 03:40:00;;;;;;;1.77;0.80;;;;;;;;;;5048730;28;20510;-82
2023/08/04 03:42:25;;;;;;;2.33;0.80;;;;;;;;;;5042467;28;20041;-82
2023/08/04 03:44:51;;;;;;;2.45;0.80;;;;;;;;;;5053927;28;20033;-82
2023/08/04 03:47:16;;;;;;;1.17;0.70;;;;;;;;;;5060011;28;20071;-82
2023/08/04 03:49:42;;;;;;;2.13;0.68;;;;;;;;;;5063129;28;20041;-81
2023/08/04 03:52:08;;;;;;;2.95;1.00;;;;;;;;;;5039201;28;20067;-81
2023/08/04 03:54:34;;;;;;;2.40;0.85;;;;;;;;;;5053150;28;20049;-82
2023/08/04 03:56:59;;;;;;;1.17;0.80;;;;;;;;;;5054250;28;20049;-82
2023/08/04 03:59:24;;;;;;;2.70;1.00;;;;;;;;;;5051599;28;20038;-81
2023/08/04 04:01:50;;;;;;;2.08;0.80;;;;;;;;;;5051811;28;20040;-81
2023/08/04 04:04:15;;;;;;;2.92;0.90;;;;;;;;;;5059710;28;20515;-82
2023/08/04 04:06:41;;;;;;;1.17;0.88;;;;;;;;;;5049963;28;20037;-82
2023/08/04 04:09:06;;;;;;;1.70;0.88;;;;;;;;;;5039670;28;20037;-82
2023/08/04 04:11:32;;;;;;;1.02;0.70;;;;;;;;;;5065301;28;20039;-82
2023/08/04 04:13:57;;;;;;;4.50;0.90;;;;;;;;;;5061628;28;20115;-82
2023/08/04 04:16:26;;;;;;;3.88;0.70;;;;;;;;;;5055455;28;20090;-82
2023/08/04 04:18:52;;;;;;;7.32;0.95;;;;;;;;;;5052546;28;20037;-82
2023/08/04 04:21:17;;;;;;;4.45;1.00;;;;;;;;;;5063078;28;20051;-82
2023/08/04 04:23:43;;;;;;;4.10;0.95;;;;;;;;;;5066463;28;20033;-82
2023/08/04 04:26:08;;;;;;;1.52;0.80;;;;;;;;;;5017086;28;1091228;-82
2023/08/04 04:28:33;;;;;;;0.90;0.63;;;;;;;;;;5063145;28;20040;-81
2023/08/04 04:31:02;;;;;;;1.10;0.80;;;;;;;;;;5061405;28;20048;-81
2023/08/04 04:33:28;;;;;;;2.47;0.88;;;;;;;;;;5057639;28;20048;-82
2023/08/04 04:35:54;;;;;;;1.20;0.70;;;;;;;;;;5063336;28;20036;-82
2023/08/04 04:38:20;;;;;;;1.27;0.75;;;;;;;;;;5063678;28;20079;-82
2023/08/04 04:40:57;;;;;;;2.15;0.80;;;;;;;;;;5051842;28;20045;-81
2023/08/04 04:43:23;;;;;;;1.55;0.80;;;;;;;;;;5041490;28;20052;-82
2023/08/04 04:45:50;;;;;;;1.05;0.70;;;;;;;;;;5072105;28;20020;-82
2023/08/04 04:48:15;;;;;;;1.60;0.70;;;;;;;;;;5065432;28;20037;-81
2023/08/04 04:50:40;;;;;;;1.83;0.80;;;;;;;;;;5053136;28;20033;-81
2023/08/04 04:53:06;;;;;;;2.03;0.98;;;;;;;;;;5057629;28;20040;-82
2023/08/04 04:55:31;;;;;;;1.67;0.77;;;;;;;;;;5060656;28;20036;-82
2023/08/04 04:57:57;;;;;;;1.55;0.90;;;;;;;;;;5063237;28;20037;-81
2023/08/04 05:00:22;;;;;;;0.95;0.60;;;;;;;;;;5060576;28;20041;-82
2023/08/04 05:02:48;;;;;;;2.30;0.80;;;;;;;;;;5064108;28;20037;-80
2023/08/04 05:05:13;;;;;;;2.97;0.80;;;;;;;;;;5062080;28;20041;-82
2023/08/04 05:07:39;;;;;;;1.77;0.90;;;;;;;;;;5055932;28;20029;-81
2023/08/04 05:10:04;;;;;;;2.20;0.80;;;;;;;;;;5069870;28;20037;-81
2023/08/04 05:12:30;;;;;;;1.42;0.80;;;;;;;;;;5068039;28;20045;-82
2023/08/04 05:14:55;;;;;;;0.80;0.60;;;;;;;;;;5053674;28;20558;-82
2023/08/04 05:17:21;;;;;;;1.98;0.80;;;;;;;;;;5049129;28;20385;-82
2023/08/04 05:19:46;;;;;;;2.38;1.10;;;;;;;;;;5073155;28;20044;-83
2023/08/04 05:22:12;;;;;;;2.25;0.85;;;;;;;;;;5063284;28;20032;-81
2023/08/04 05:24:37;;;;;;;1.88;0.80;;;;;;;;;;5052348;28;20138;-82
2023/08/04 05:27:04;;;;;;;1.35;0.70;;;;;;;;;;5060981;28;20037;-82
2023/08/04 05:29:30;;;;;;;2.53;0.77;;;;;;;;;;5053501;28;20032;-82
2023/08/04 05:31:55;;;;;;;0.82;0.60;;;;;;;;;;5063331;28;20040;-82
2023/08/04 05:34:21;;;;;;;2.05;0.70;;;;;;;;;;5063577;28;20037;-85
2023/08/04 05:36:46;;;;;;;1.55;0.82;;;;;;;;;;5061268;28;20032;-81
2023/08/04 05:39:11;;;;;;;1.02;0.70;;;;;;;;;;5052670;28;20091;-81
2023/08/04 05:41:37;;;;;;;1.33;0.77;;;;;;;;;;5054717;28;20047;-81
2023/08/04 05:44:03;;;;;;;1.38;0.80;;;;;;;;;;5072125;28;20561;-82
2023/08/04 05:46:28;;;;;;;1.73;0.98;;;;;;;;;;5062145;28;20056;-82
2023/08/04 05:48:56;;;;;;;1.88;0.80;;;;;;;;;;5051972;28;20040;-82
2023/08/04 05:51:22;;;;;;;1.67;0.85;;;;;;;;;;5047242;28;20033;-82
2023/08/04 05:53:48;;;;;;;2.88;0.98;;;;;;;;;;5068454;28;20051;-82
2023/08/04 05:56:13;;;;;;;3.65;0.98;;;;;;;;;;5060350;28;20262;-82
2023/08/04 05:58:39;;;;;;;1.05;0.85;;;;;;;;;;5051245;28;20485;-81
2023/08/04 06:01:04;;;;;;;1.35;0.80;;;;;;;;;;5059106;28;20041;-82
2023/08/04 06:03:29;;;;;;;1.88;1.05;;;;;;;;;;5056860;28;20039;-82
2023/08/04 06:05:55;;;;;;;1.40;0.80;;;;;;;;;;5064339;28;20035;-83
2023/08/04 06:08:20;;;;;;;1.20;0.77;;;;;;;;;;5066595;28;20051;-83
2023/08/04 06:10:46;;;;;;;2.20;1.08;;;;;;;;;;5072813;28;20033;-83
2023/08/04 06:13:11;;;;;;;2.97;0.65;;;;;;;;;;5052578;28;20087;-84
2023/08/04 06:15:37;;;;;;;3.70;0.90;;;;;;;;;;5053191;28;20031;-84
2023/08/04 06:18:02;;;;;;;0.85;0.70;;;;;;;;;;5072433;28;20032;-81
2023/08/04 06:20:28;;;;;;;0.68;0.60;;;;;;;;;;5061317;28;20045;-82
2023/08/04 06:22:53;;;;;;;1.10;0.75;;;;;;;;;;5052358;28;20044;-83
2023/08/04 06:25:19;;;;;;;0.80;0.70;;;;;;;;;;5059674;28;20037;-84
2023/08/04 06:27:44;;;;;;;2.78;0.82;;;;;;;;;;5066408;28;20071;-83
2023/08/04 06:30:10;;;;;;;1.08;0.77;;;;;;;;;;5046898;28;20040;-83
2023/08/04 06:32:35;;;;;;;1.33;0.80;;;;;;;;;;5056560;28;20041;-82
2023/08/04 06:35:01;;;;;;;1.35;0.75;;;;;;;;;;5061047;28;20036;-81
2023/08/04 06:37:27;;;;;;;0.90;0.75;;;;;;;;;;5046797;28;20061;-81
2023/08/04 06:39:52;;;;;;;1.83;0.75;;;;;;;;;;5055666;28;20041;-81
2023/08/04 06:42:19;;;;;;;2.30;0.77;;;;;;;;;;5065482;28;20044;-82
2023/08/04 06:44:45;;;;;;;2.88;0.80;;;;;;;;;;5064303;28;20021;-81
2023/08/04 06:47:12;;;;;;;2.28;0.85;;;;;;;;;;5048259;28;20104;-82
2023/08/04 06:49:37;;;;;;;2.05;0.80;;;;;;;;;;5058180;28;20033;-81
2023/08/04 06:52:03;;;;;;;0.90;0.70;;;;;;;;;;5071543;28;20655;-84
2023/08/04 06:54:29;;;;;;;1.15;0.90;;;;;;;;;;5060542;28;20438;-85
2023/08/04 06:56:55;;;;;;;5.88;1.00;;;;;;;;;;5040973;28;20507;-83
2023/08/04 06:59:20;;;;;;;1.10;0.70;;;;;;;;;;5058731;28;20068;-83
2023/08/04 07:01:46;;;;;;;0.90;0.70;;;;;;;;;;5064593;28;20036;-83
2023/08/04 07:04:11;;;;;;;2.60;0.90;;;;;;;;;;5059624;28;20291;-83
2023/08/04 07:06:37;;;;;;;2.92;0.77;;;;;;;;;;5060749;28;20047;-84
2023/08/04 07:09:02;;;;;;;1.92;0.80;;;;;;;;;;5059395;28;20033;-83
2023/08/04 07:11:28;;;;;;;0.98;0.77;;;;;;;;;;5050367;28;20041;-83
2023/08/04 07:13:54;;;;;;;1.60;0.80;;;;;;;;;;5064450;28;20040;-83
2023/08/04 07:16:20;;;;;;;1.15;0.80;;;;;;;;;;5070879;28;20035;-82
2023/08/04 07:18:45;;;;;;;3.20;0.85;;;;;;;;;;5058778;28;20040;-83
2023/08/04 07:21:12;;;;;;;1.85;0.90;;;;;;;;;;5060836;28;20555;-83
2023/08/04 07:23:39;;;;;;;3.00;0.80;;;;;;;;;;5057055;28;20036;-85
2023/08/04 07:26:06;;;;;;;1.65;0.70;;;;;;;;;;5068827;28;20479;-84
2023/08/04 07:28:32;;;;;;;1.95;0.70;;;;;;;;;;5045598;28;20033;-84
2023/08/04 07:30:59;;;;;;;4.03;0.90;;;;;;;;;;5047765;28;20033;-79
2023/08/04 07:33:26;;;;;;;1.25;0.70;;;;;;;;;;5053523;28;20056;-84
2023/08/04 07:35:53;;;;;;;1.77;0.70;;;;;;;;;;5057913;28;20030;-82
2023/08/04 07:38:19;;;;;;;1.33;0.80;;;;;;;;;;5047188;28;20041;-83
2023/08/04 07:40:44;;;;;;;1.55;0.73;;;;;;;;;;5060495;28;20032;-84
2023/08/04 07:43:11;;;;;;;1.40;0.80;;;;;;;;;;5051533;28;20040;-84
2023/08/04 07:45:37;;;;;;;1.65;0.80;;;;;;;;;;5041521;28;20084;-85
2023/08/04 07:48:03;;;;;;;1.13;0.70;;;;;;;;;;5059284;28;20488;-83
2023/08/04 07:50:28;;;;;;;1.60;0.77;;;;;;;;;;5063100;28;20068;-83
2023/08/04 07:52:54;;;;;;;2.17;0.70;;;;;;;;;;5052925;28;20040;-83
2023/08/04 07:55:19;;;;;;;1.15;0.70;;;;;;;;;;5050065;28;20029;-83
2023/08/04 07:57:45;;;;;;;2.30;0.88;;;;;;;;;;5060617;28;20039;-82
2023/08/04 08:00:11;;;;;;;1.90;0.80;;;;;;;;;;5065256;28;20044;-84
2023/08/04 08:02:36;;;;;;;0.90;0.63;;;;;;;;;;5051951;28;20493;-86
2023/08/04 08:05:02;;;;;;;2.05;0.80;;;;;;;;;;5056578;28;20059;-84
2023/08/04 08:07:28;;;;;;;1.30;1.00;;;;;;;;;;5058491;28;20041;-83
2023/08/04 08:09:53;;;;;;;1.23;0.82;;;;;;;;;;5052810;28;20057;-83
2023/08/04 08:12:19;;;;;;;2.42;0.80;;;;;;;;;;5056443;28;20121;-83
2023/08/04 08:14:45;;;;;;;1.38;0.73;;;;;;;;;;5062895;28;20068;-85
2023/08/04 08:17:10;;;;;;;4.00;0.80;;;;;;;;;;5049717;28;20036;-83
2023/08/04 08:19:36;;;;;;;1.30;0.70;;;;;;;;;;5032610;28;20052;-85
2023/08/04 08:22:01;;;;;;;3.30;0.85;;;;;;;;;;5063233;28;20035;-83
2023/08/04 08:24:27;;;;;;;2.05;0.77;;;;;;;;;;5058678;28;20040;-85
2023/08/04 08:26:52;;;;;;;0.85;0.68;;;;;;;;;;5047953;28;20142;-85
2023/08/04 08:29:17;;;;;;;1.23;0.68;;;;;;;;;;5046063;28;20059;-84
2023/08/04 08:31:43;;;;;;;3.47;0.95;;;;;;;;;;5052191;28;20025;-83
2023/08/04 08:34:09;;;;;;;1.48;0.90;;;;;;;;;;5058526;28;20067;-84
2023/08/04 08:36:34;;;;;;;1.90;0.80;;;;;;;;;;5047737;28;20035;-86
2023/08/04 08:39:00;;;;;;;1.45;0.85;;;;;;;;;;5057412;28;20120;-84
2023/08/04 08:41:26;;;;;;;1.45;0.90;;;;;;;;;;5056969;28;20036;-86
2023/08/04 08:43:51;;;;;;;3.90;1.33;;;;;;;;;;5058814;28;20029;-85
2023/08/04 08:46:17;;;;;;;2.28;0.90;;;;;;;;;;5063238;28;20036;-85
2023/08/04 08:48:47;;;;;;;2.70;0.70;;;;;;;;;;5064063;28;20115;-85
2023/08/04 08:51:21;;;;;;;1.60;0.70;;;;;;;;;;5051331;28;20041;-86
2023/08/04 08:53:47;;;;;;;3.35;0.85;;;;;;;;;;5042331;28;20037;-87
2023/08/04 08:56:14;;;;;;;4.28;1.00;;;;;;;;;;5070338;28;20024;-85
2023/08/04 08:58:41;;;;;;;2.13;0.80;;;;;;;;;;5061792;28;20545;-85
2023/08/04 09:01:07;;;;;;;4.50;1.20;;;;;;;;;;5059910;28;20049;-85
2023/08/04 09:03:35;;;;;;;3.17;1.70;;;;;;;;;;5059020;28;20041;-82
2023/08/04 09:06:01;;;;;;;3.15;1.15;;;;;;;;;;5054652;28;20071;-84
2023/08/04 09:08:27;;;;;;;2.08;1.00;;;;;;;;;;5068197;28;20021;-83
2023/08/04 09:10:53;;;;;;;1.13;0.80;;;;;;;;;;5065896;28;20574;-84
2023/08/04 09:13:18;;;;;;;3.38;1.02;;;;;;;;;;5069215;28;20037;-83
2023/08/04 09:15:55;;;;;;;1.15;0.90;;;;;;;;;;5059606;28;20034;-84
2023/08/04 09:18:33;;;;;;;3.83;1.20;;;;;;;;;;5055765;28;20025;-84
2023/08/04 09:21:08;;;;;;;3.00;1.13;;;;;;;;;;5072621;28;20152;-85
2023/08/04 09:23:50;;;;;;;3.42;0.93;;;;;;;;;;5059695;28;20047;-85
2023/08/04 09:26:16;;;;;;;3.08;1.10;;;;;;;;;;5054097;28;20053;-84
2023/08/04 09:28:41;;;;;;;5.72;1.20;;;;;;;;;;5060063;28;20049;-84
2023/08/04 09:31:11;;;;;;;4.30;1.00;;;;;;;;;;5074795;28;20064;-84
2023/08/04 09:33:41;;;;;;;1.02;0.90;;;;;;;;;;5062140;28;20042;-84
2023/08/04 09:36:17;;;;;;;1.98;1.05;;;;;;;;;;5060645;28;20059;-82
2023/08/04 09:38:43;;;;;;;7.60;1.10;;;;;;;;;;5058303;28;20033;-85
2023/08/04 09:41:14;;;;;;;2.55;1.52;;;;;;;;;;5060330;28;20096;-86
2023/08/04 09:43:47;;;;;;;1.42;0.80;;;;;;;;;;5059855;28;20128;-85
2023/08/04 09:46:14;;;;;;;1.40;0.90;;;;;;;;;;5047624;28;20033;-85
2023/08/04 09:48:39;;;;;;;1.67;0.70;;;;;;;;;;5054987;28;20416;-85
2023/08/04 09:51:12;;;;;;;2.45;1.00;;;;;;;;;;5045125;28;20037;-83
2023/08/04 09:53:46;;;;;;;2.85;1.30;;;;;;;;;;5052981;28;20078;-87
2023/08/04 09:56:12;;;;;;;;;;;;;;;;;;5067997;28;20030;-88
2023/08/04 09:58:39;;;;;;;4.63;1.20;;;;;;;;;;5055436;28;20306;-85
2023/08/04 10:01:04;;;;;;;6.28;1.60;;;;;;;;;;5051068;28;20048;-83
2023/08/04 10:03:32;;;;;;;1.92;1.20;;;;;;;;;;5061001;28;20028;-83
2023/08/04 10:06:09;;;;;;;5.70;1.50;;;;;;;;;;5061841;28;20036;-84
2023/08/04 10:08:39;;;;;;;4.10;1.20;;;;;;;;;;5055476;28;20033;-83
2023/08/04 10:11:05;;;;;;;3.97;1.90;;;;;;;;;;5060869;28;20493;-83
2023/08/04 10:13:33;;;;;;;3.78;2.03;;;;;;;;;;5051414;28;20088;-85
2023/08/04 10:16:02;;;;;;;2.08;1.20;;;;;;;;;;5060859;28;20090;-84
2023/08/04 10:18:47;;;;;;;3.85;1.20;;;;;;;;;;5065706;28;20040;-85
2023/08/04 10:21:13;;;;;;;3.25;1.30;;;;;;;;;;5060208;28;20607;-86
2023/08/04 10:23:39;;;;;;;4.22;1.55;;;;;;;;;;5053754;28;20060;-85
2023/08/04 10:26:04;;;;;;;4.75;1.10;;;;;;;;;;5057930;28;20055;-83
2023/08/04 10:28:31;;;;;;;2.03;1.00;;;;;;;;;;5075458;28;20036;-84
2023/08/04 10:31:11;;;;;;;3.40;1.23;;;;;;;;;;5064272;28;20044;-85
2023/08/04 10:33:37;;;;;;;2.58;1.10;;;;;;;;;;5050964;28;20040;-85
2023/08/04 10:36:10;;;;;;;1.80;1.00;;;;;;;;;;5060669;28;20029;-86
2023/08/04 10:38:49;;;;;;;2.37;1.67;;;;;;;;;;5066060;28;20048;-85
2023/08/04 10:41:16;;;;;;;3.20;1.35;;;;;;;;;;5059846;28;20036;-86
2023/08/04 10:43:58;;;;;;;2.40;1.50;;;;;;;;;;5064765;28;20067;-86
2023/08/04 10:46:24;;;;;;;1.73;1.05;;;;;;;;;;5056770;28;20052;-84
2023/08/04 10:48:50;;;;;;;2.35;1.05;;;;;;;;;;5054241;28;20096;-88
2023/08/04 10:51:16;;;;;;;3.17;1.70;;;;;;;;;;5061231;28;20071;-86
2023/08/04 10:53:42;;;;;;;2.22;1.20;;;;;;;;;;5067510;28;20037;-84
2023/08/04 10:56:08;;;;;;;1.60;0.90;;;;;;;;;;5053734;28;20037;-89
2023/08/04 10:58:35;;;;;;;1.48;1.20;;;;;;;;;;5040638;28;20064;-88
2023/08/04 11:01:01;;;;;;;1.45;0.90;;;;;;;;;;5061908;28;20115;-87
2023/08/04 11:03:27;;;;;;;3.83;1.60;;;;;;;;;;5062958;28;20061;-89
2023/08/04 11:05:54;;;;;;;4.50;2.78;;;;;;;;;;5046945;28;20029;-87
2023/08/04 11:08:20;;;;;;;2.47;1.17;;;;;;;;;;5054111;28;20116;-88
2023/08/04 11:10:48;;;;;;;1.55;1.13;;;;;;;;;;5053506;28;20060;-86
2023/08/04 11:13:17;;;;;;;2.17;1.08;;;;;;;;;;5060481;28;20039;-86
2023/08/04 11:15:43;;;;;;;3.97;1.40;;;;;;;;;;5049414;28;20036;-86
2023/08/04 11:18:13;;;;;;;3.28;1.30;;;;;;;;;;5061561;28;20036;-87
2023/08/04 11:20:42;;;;;;;3.72;1.20;;;;;;;;;;5057240;28;20037;-85
2023/08/04 11:23:12;;;;;;;2.92;1.08;;;;;;;;;;5044762;28;20037;-84
2023/08/04 11:25:39;;;;;;;3.60;1.10;;;;;;;;;;5065681;28;20025;-86
2023/08/04 11:28:06;;;;;;;4.53;1.20;;;;;;;;;;5067413;28;20094;-85
2023/08/04 11:30:35;;;;;;;4.75;1.00;;;;;;;;;;5053960;28;20380;-86
2023/08/04 11:33:07;;;;;;;3.78;1.30;;;;;;;;;;5045247;28;20043;-87
2023/08/04 11:35:32;;;;;;;4.45;1.23;;;;;;;;;;5068963;28;20044;-87
2023/08/04 11:38:00;;;;;;;1.63;1.00;;;;;;;;;;5064060;28;20037;-87
2023/08/04 11:40:26;;;;;;;3.47;1.13;;;;;;;;;;5050319;28;20412;-85
2023/08/04 11:42:52;;;;;;;3.15;0.82;;;;;;;;;;5057731;28;20065;-84
2023/08/04 11:45:18;;;;;;;5.47;1.10;;;;;;;;;;5059766;28;20044;-84
2023/08/04 11:47:45;;;;;;;4.63;1.20;;;;;;;;;;5060459;28;20041;-85
2023/08/04 11:50:10;;;;;;;1.73;1.00;;;;;;;;;;5059158;28;20043;-85
2023/08/04 11:52:38;;;;;;;2.55;1.20;;;;;;;;;;5060733;28;20115;-85
2023/08/04 11:55:05;;;;;;;2.70;1.20;;;;;;;;;;5048507;28;20048;-85
2023/08/04 11:57:31;;;;;;;1.98;1.20;;;;;;;;;;5048400;28;20102;-84
2023/08/04 12:00:01;;;;;;;2.38;0.90;;;;;;;;;;5059484;28;20037;-86
2023/08/04 12:02:26;;;;;;;2.08;1.08;;;;;;;;;;5054593;28;20041;-85
2023/08/04 12:05:18;;;;;;;2.45;0.98;;;;;;;;;;5054211;28;20045;-86
2023/08/04 12:07:44;;;;;;;2.72;1.13;;;;;;;;;;5048255;28;20107;-86
2023/08/04 12:10:14;;;;;;;3.30;1.02;;;;;;;;;;5070655;28;20072;-85
2023/08/04 12:12:41;;;;;;;2.03;1.08;;;;;;;;;;5056542;28;20136;-86
2023/08/04 12:15:07;;;;;;;1.50;1.10;;;;;;;;;;5057431;28;20512;-87
2023/08/04 12:17:41;;;;;;;2.28;1.00;;;;;;;;;;5054725;28;20041;-87
2023/08/04 12:20:07;;;;;;;;;;;;;;;;;;5051761;28;20115;-85
2023/08/04 12:22:36;;;;;;;2.42;1.20;;;;;;;;;;5057663;28;19912;-86
2023/08/04 12:25:06;;;;;;;2.67;1.15;;;;;;;;;;5065487;28;20028;-86
2023/08/04 12:27:32;;;;;;;2.17;1.10;;;;;;;;;;5054935;28;20053;-85
2023/08/04 12:29:57;;;;;;;2.05;1.17;;;;;;;;;;5044876;28;20044;-85
2023/08/04 12:32:23;;;;;;;1.90;1.10;;;;;;;;;;5064848;28;20029;-85
2023/08/04 12:34:48;;;;;;;3.40;1.15;;;;;;;;;;5070831;28;20124;-85
2023/08/04 12:37:14;;;;;;;5.03;1.25;;;;;;;;;;5059002;28;20036;-85
2023/08/04 12:39:41;;;;;;;3.80;1.33;;;;;;;;;;5055441;28;20144;-85
2023/08/04 12:42:07;;;;;;;1.95;1.15;;;;;;;;;;5064895;28;20546;-86
2023/08/04 12:44:32;;;;;;;3.42;1.08;;;;;;;;;;5069193;28;20025;-87
2023/08/04 12:46:58;;;;;;;2.92;1.20;;;;;;;;;;5055510;28;20041;-87
2023/08/04 12:49:23;;;;;;;2.85;1.20;;;;;;;;;;5061341;28;20037;-87
2023/08/04 12:51:49;;;;;;;3.28;1.35;;;;;;;;;;5053928;28;20051;-86
2023/08/04 12:54:14;;;;;;;2.50;1.33;;;;;;;;;;5053942;28;20041;-87
2023/08/04 12:56:40;;;;;;;2.15;1.10;;;;;;;;;;5061911;28;20036;-86
2023/08/04 12:59:06;;;;;;;1.70;1.00;;;;;;;;;;5065611;28;20438;-86
2023/08/04 13:01:31;;;;;;;3.45;1.10;;;;;;;;;;5057043;28;20515;-87
2023/08/04 13:03:57;;;;;;;2.75;1.20;;;;;;;;;;5057289;28;20040;-87
2023/08/04 13:06:22;;;;;;;2.08;1.13;;;;;;;;;;5066780;28;20387;-87
2023/08/04 13:08:47;;;;;;;4.15;1.20;;;;;;;;;;5063874;28;20033;-88
2023/08/04 13:11:13;;;;;;;3.47;1.13;;;;;;;;;;5053285;28;20037;-88
2023/08/04 13:13:39;;;;;;;2.90;1.30;;;;;;;;;;5057537;28;20127;-87
2023/08/04 13:16:04;;;;;;;2.22;1.00;;;;;;;;;;5054388;28;20036;-86
2023/08/04 13:18:30;;;;;;;2.05;1.20;;;;;;;;;;5061206;28;20029;-87
2023/08/04 13:20:55;;;;;;;4.00;1.30;;;;;;;;;;5059558;28;20195;-81
2023/08/04 13:23:21;;;;;;;1.88;1.20;;;;;;;;;;5059821;28;20041;-81
2023/08/04 13:25:46;;;;;;;3.47;1.17;;;;;;;;;;5049078;28;20033;-80
2023/08/04 13:28:12;;;;;;;2.38;1.20;;;;;;;;;;5045996;28;20517;-82
2023/08/04 13:30:41;;;;;;;4.45;1.35;;;;;;;;;;5065521;28;20033;-82
2023/08/04 13:33:07;;;;;;;2.75;1.38;;;;;;;;;;5058656;28;20507;-82
2023/08/04 13:35:32;;;;;;;2.20;1.20;;;;;;;;;;5049772;28;20118;-86
2023/08/04 13:37:58;;;;;;;4.25;1.40;;;;;;;;;;5046466;28;20027;-86
2023/08/04 13:40:23;;;;;;;4.78;1.40;;;;;;;;;;5063534;28;20032;-87
2023/08/04 13:42:48;;;;;;;3.50;1.20;;;;;;;;;;5060170;28;20067;-88
2023/08/04 13:45:14;;;;;;;2.65;1.30;;;;;;;;;;5057477;28;20037;-86
2023/08/04 13:47:39;;;;;;;3.50;1.30;;;;;;;;;;5060590;28;20041;-86
2023/08/04 13:50:06;;;;;;;3.78;1.40;;;;;;;;;;5054845;28;20040;-86
2023/08/04 13:52:32;;;;;;;2.65;1.30;;;;;;;;;;5058584;28;20029;-86
2023/08/04 13:54:57;;;;;;;2.63;1.30;;;;;;;;;;5054875;28;20029;-85
2023/08/04 13:57:22;;;;;;;3.20;1.10;;;;;;;;;;5060240;28;20049;-85
2023/08/04 13:59:48;;;;;;;3.03;1.10;;;;;;;;;;5050063;28;20536;-86
2023/08/04 14:02:13;;;;;;;3.10;1.40;;;;;;;;;;5044310;28;20036;-86
2023/08/04 14:04:39;;;;;;;2.67;1.20;;;;;;;;;;5067497;28;20124;-85
2023/08/04 14:07:04;;;;;;;2.67;1.30;;;;;;;;;;5059588;28;20115;-86
2023/08/04 14:09:39;;;;;;;2.72;1.30;;;;;;;;;;5040618;28;20095;-85
2023/08/04 14:12:05;;;;;;;3.22;1.15;;;;;;;;;;5049724;28;20056;-86
2023/08/04 14:14:31;;;;;;;2.47;1.00;;;;;;;;;;5059434;28;20052;-87
2023/08/04 14:16:56;;;;;;;2.85;1.10;;;;;;;;;;5057400;28;20696;-85
2023/08/04 14:19:22;;;;;;;1.92;1.02;;;;;;;;;;5045506;28;20067;-83
2023/08/04 14:21:47;;;;;;;1.92;1.20;;;;;;;;;;5056857;28;20039;-85
2023/08/04 14:24:13;;;;;;;2.38;1.00;;;;;;;;;;5052826;28;20033;-86
2023/08/04 14:26:38;;;;;;;2.53;1.20;;;;;;;;;;5053902;28;20122;-84
2023/08/04 14:29:04;;;;;;;2.08;1.00;;;;;;;;;;5062635;28;20035;-84
2023/08/04 14:31:30;;;;;;;4.50;1.17;;;;;;;;;;5059105;28;20497;-86
2023/08/04 14:33:55;;;;;;;2.45;1.30;;;;;;;;;;5059231;28;20064;-85
2023/08/04 14:36:21;;;;;;;4.50;1.30;;;;;;;;;;5048557;28;20029;-83
2023/08/04 14:38:46;;;;;;;3.17;1.25;;;;;;;;;;5071808;28;20041;-84